createdAt,value
2022-08-17T00:01:51.816Z,18.23
2022-08-17T00:04:22.733Z,17.95
2022-08-17T00:06:53.504Z,19.10
2022-08-17T00:09:23.234Z,18.45
2022-08-17T00:12:41.081Z,20.30
2022-08-17T00:14:45.385Z,20.27
2022-08-17T00:17:15.137Z,21.15
2022-08-17T00:19:44.850Z,18.92
2022-08-17T00:22:30.907Z,20.58
2022-08-17T00:25:04.400Z,25.25
2022-08-17T00:27:37.063Z,22.23
2022-08-17T00:30:09.619Z,20.35
2022-08-17T00:33:15.776Z,20.70
2022-08-17T00:35:31.042Z,18.58
2022-08-17T00:38:00.753Z,20.38
2022-08-17T00:40:44.475Z,21.25
2022-08-17T00:43:23.974Z,20.80
2022-08-17T00:45:53.739Z,21.08
2022-08-17T00:48:30.283Z,23.60
2022-08-17T00:51:05.273Z,23.63
2022-08-17T00:53:38.257Z,21.13
2022-08-17T00:56:08.947Z,23.25
2022-08-17T00:58:41.691Z,22.35
2022-08-17T01:01:21.446Z,23.70
2022-08-17T01:03:53.642Z,20.33
2022-08-17T01:06:28.576Z,21.98
2022-08-17T01:08:59.905Z,21.10
2022-08-17T01:11:30.479Z,21.63
2022-08-17T01:14:02.894Z,20.75
2022-08-17T01:16:34.725Z,21.33
2022-08-17T01:19:08.060Z,18.85
2022-08-17T01:21:47.107Z,19.85
2022-08-17T01:24:20.100Z,20.67
2022-08-17T01:26:50.557Z,19.80
2022-08-17T01:29:21.650Z,20.27
2022-08-17T01:31:55.343Z,22.92
2022-08-17T01:34:25.249Z,27.00
2022-08-17T01:37:12.568Z,26.05
2022-08-17T01:39:48.599Z,23.05
2022-08-17T01:42:23.858Z,23.77
2022-08-17T01:44:59.020Z,31.13
2022-08-17T01:47:29.907Z,23.75
2022-08-17T01:50:00.911Z,24.70
2022-08-17T01:52:30.636Z,25.45
2022-08-17T01:55:03.416Z,23.73
2022-08-17T01:57:33.157Z,22.88
2022-08-17T02:00:03.002Z,23.13
2022-08-17T02:02:33.261Z,25.23
2022-08-17T02:05:03.031Z,22.85
2022-08-17T02:07:32.789Z,24.17
2022-08-17T02:10:25.677Z,23.95
2022-08-17T02:13:04.527Z,24.25
2022-08-17T02:15:35.264Z,23.05
2022-08-17T02:18:05.718Z,20.52
2022-08-17T02:20:42.627Z,19.40
2022-08-17T02:23:14.720Z,20.20
2022-08-17T02:25:50.580Z,20.80
2022-08-17T02:28:21.439Z,16.77
2022-08-17T02:31:02.294Z,15.27
2022-08-17T02:33:43.012Z,13.00
2022-08-17T02:36:14.686Z,13.75
2022-08-17T02:38:45.301Z,12.68
2022-08-17T02:41:17.693Z,13.23
2022-08-17T02:43:47.466Z,17.83
2022-08-17T02:46:17.176Z,16.55
2022-08-17T02:48:47.132Z,12.13
2022-08-17T02:51:16.898Z,10.48
2022-08-17T02:53:46.886Z,13.52
2022-08-17T02:56:19.394Z,13.50
2022-08-17T02:58:49.321Z,14.18
2022-08-17T03:01:19.324Z,14.93
2022-08-17T03:03:49.284Z,16.38
2022-08-17T03:06:19.542Z,16.02
2022-08-17T03:08:49.260Z,16.70
2022-08-17T03:11:22.129Z,15.32
2022-08-17T03:13:51.910Z,15.80
2022-08-17T03:16:21.625Z,20.60
2022-08-17T03:18:51.426Z,22.00
2022-08-17T03:21:21.127Z,21.20
2022-08-17T03:23:54.341Z,19.70
2022-08-17T03:26:29.643Z,19.50
2022-08-17T03:28:59.682Z,27.95
2022-08-17T03:31:29.397Z,22.25
2022-08-17T03:33:59.261Z,20.85
2022-08-17T03:36:29.677Z,19.10
2022-08-17T03:39:01.049Z,19.92
2022-08-17T03:41:33.448Z,16.52
2022-08-17T03:44:03.186Z,20.60
2022-08-17T03:46:45.352Z,23.63
2022-08-17T03:49:27.501Z,22.23
2022-08-17T03:52:11.147Z,23.65
2022-08-17T03:54:53.376Z,23.45
2022-08-17T03:57:26.210Z,25.13
2022-08-17T03:59:56.582Z,24.50
2022-08-17T04:02:28.326Z,25.40
2022-08-17T04:04:58.180Z,26.50
2022-08-17T04:07:31.101Z,25.50
2022-08-17T04:10:00.967Z,26.50
2022-08-17T04:12:47.138Z,23.02
2022-08-17T04:15:18.538Z,21.48
2022-08-17T04:17:48.408Z,22.70
2022-08-17T04:20:20.524Z,20.90
2022-08-17T04:23:02.275Z,21.20
2022-08-17T04:25:33.716Z,21.17
2022-08-17T04:28:15.759Z,20.95
2022-08-17T04:30:48.860Z,21.05
2022-08-17T04:33:21.975Z,18.85
2022-08-17T04:35:54.065Z,18.85
2022-08-17T04:38:25.704Z,17.58
2022-08-17T04:41:08.631Z,18.15
2022-08-17T04:43:43.022Z,17.50
2022-08-17T04:46:15.585Z,19.80
2022-08-17T04:48:47.628Z,23.15
2022-08-17T04:51:22.258Z,20.75
2022-08-17T04:53:55.179Z,22.30
2022-08-17T04:56:26.159Z,26.48
2022-08-17T04:59:04.463Z,28.80
2022-08-17T05:01:36.539Z,26.33
2022-08-17T05:04:21.331Z,20.45
2022-08-17T05:06:58.839Z,20.25
2022-08-17T05:09:29.171Z,21.90
2022-08-17T05:11:58.860Z,20.98
2022-08-17T05:14:33.541Z,19.63
2022-08-17T05:17:10.620Z,21.67
2022-08-17T05:19:41.771Z,23.60
2022-08-17T05:22:11.562Z,26.90
2022-08-17T05:24:43.648Z,27.33
2022-08-17T05:27:25.330Z,28.98
2022-08-17T05:30:02.176Z,25.85
2022-08-17T05:32:38.457Z,24.05
2022-08-17T05:35:11.192Z,24.58
2022-08-17T05:37:40.929Z,26.55
2022-08-17T05:40:11.839Z,27.13
2022-08-17T05:42:41.585Z,29.00
2022-08-17T05:45:15.847Z,26.67
2022-08-17T05:47:53.897Z,32.35
2022-08-17T05:50:29.949Z,31.88
2022-08-17T05:53:06.095Z,31.42
2022-08-17T05:55:44.856Z,32.45
2022-08-17T05:58:26.507Z,33.08
2022-08-17T06:01:06.269Z,35.20
2022-08-17T06:03:46.224Z,34.33
2022-08-17T06:06:31.248Z,31.38
2022-08-17T06:09:24.802Z,29.25
2022-08-17T06:12:03.677Z,33.10
2022-08-17T06:14:47.074Z,36.55
2022-08-17T06:17:25.226Z,31.27
2022-08-17T06:19:59.812Z,31.90
2022-08-17T06:22:34.804Z,34.35
2022-08-17T06:25:10.321Z,35.25
2022-08-17T06:27:45.138Z,32.05
2022-08-17T06:30:18.161Z,26.80
2022-08-17T06:32:52.916Z,27.63
2022-08-17T06:35:32.114Z,28.02
2022-08-17T06:38:15.104Z,27.80
2022-08-17T06:41:12.541Z,26.95
2022-08-17T06:43:56.850Z,25.13
2022-08-17T06:46:37.232Z,23.55
2022-08-17T06:49:22.128Z,27.92
2022-08-17T06:51:57.779Z,27.60
2022-08-17T06:54:36.967Z,26.35
2022-08-17T06:57:15.450Z,31.00
2022-08-17T06:59:55.790Z,26.73
2022-08-17T07:02:52.051Z,25.75
2022-08-17T07:05:28.400Z,25.95
2022-08-17T07:08:05.762Z,30.08
2022-08-17T07:10:42.740Z,36.10
2022-08-17T07:13:25.666Z,34.65
2022-08-17T07:16:00.259Z,29.58
2022-08-17T07:18:33.320Z,32.42
2022-08-17T07:21:17.519Z,28.20
2022-08-17T07:24:02.884Z,24.90
2022-08-17T07:26:32.692Z,26.27
2022-08-17T07:29:04.520Z,25.30
2022-08-17T07:31:35.155Z,24.77
2022-08-17T07:34:14.667Z,24.20
2022-08-17T07:36:47.127Z,26.58
2022-08-17T07:39:30.494Z,23.52
2022-08-17T07:42:05.927Z,24.20
2022-08-17T07:44:48.675Z,25.13
2022-08-17T07:47:32.203Z,35.95
2022-08-17T07:50:01.958Z,30.30
2022-08-17T07:52:51.049Z,26.50
2022-08-17T07:55:35.115Z,28.42
2022-08-17T07:58:04.886Z,23.85
2022-08-17T08:00:34.816Z,28.17
2022-08-17T08:03:16.731Z,36.33
2022-08-17T08:05:56.562Z,34.28
2022-08-17T08:08:36.093Z,34.78
2022-08-17T08:11:11.871Z,35.03
2022-08-17T08:13:45.867Z,36.65
2022-08-17T08:16:24.559Z,34.67
2022-08-17T08:18:58.259Z,34.90
2022-08-17T08:21:49.283Z,35.30
2022-08-17T08:24:36.817Z,33.80
2022-08-17T08:27:13.944Z,34.53
2022-08-17T08:29:55.598Z,35.25
2022-08-17T08:32:57.301Z,33.40
2022-08-17T08:35:34.503Z,32.33
2022-08-17T08:38:13.672Z,31.45
2022-08-17T08:40:59.597Z,30.95
2022-08-17T08:43:38.547Z,28.83
2022-08-17T08:46:24.581Z,31.52
2022-08-17T08:49:45.125Z,33.97
2022-08-17T08:52:24.913Z,30.98
2022-08-17T08:55:00.675Z,31.00
2022-08-17T08:57:36.851Z,31.60
2022-08-17T09:00:15.827Z,32.13
2022-08-17T09:03:19.262Z,32.85
2022-08-17T09:06:32.483Z,33.75
2022-08-17T09:09:10.274Z,33.67
2022-08-17T09:12:02.518Z,32.10
2022-08-17T09:14:47.093Z,31.85
2022-08-17T09:17:22.068Z,29.63
2022-08-17T09:19:57.471Z,33.42
2022-08-17T09:22:33.426Z,28.48
2022-08-17T09:25:11.895Z,25.02
2022-08-17T09:27:53.659Z,24.02
2022-08-17T09:30:26.790Z,21.67
2022-08-17T09:33:01.930Z,22.05
2022-08-17T09:35:37.580Z,21.42
2022-08-17T09:38:21.501Z,26.10
2022-08-17T09:40:55.724Z,27.95
2022-08-17T09:43:33.563Z,34.72
2022-08-17T09:46:14.488Z,37.65
2022-08-17T09:48:50.561Z,39.63
2022-08-17T09:51:27.495Z,37.55
2022-08-17T09:54:14.783Z,33.35
2022-08-17T09:57:25.709Z,31.25
2022-08-17T10:00:01.223Z,30.23
2022-08-17T10:03:00.985Z,26.60
2022-08-17T10:05:40.089Z,30.00
2022-08-17T10:08:22.953Z,25.90
2022-08-17T10:11:08.893Z,23.20
2022-08-17T10:13:53.228Z,21.17
2022-08-17T10:16:32.589Z,20.90
2022-08-17T10:19:17.444Z,22.65
2022-08-17T10:22:14.962Z,21.27
2022-08-17T10:25:21.508Z,19.42
2022-08-17T10:27:57.795Z,19.65
2022-08-17T10:30:30.987Z,21.13
2022-08-17T10:33:03.997Z,22.33
2022-08-17T10:35:41.507Z,19.85
2022-08-17T10:38:36.614Z,21.35
2022-08-17T10:41:22.409Z,23.27
2022-08-17T10:44:39.723Z,23.50
2022-08-17T10:47:06.340Z,23.92
2022-08-17T10:49:37.181Z,25.23
2022-08-17T10:52:42.403Z,27.05
2022-08-17T10:55:20.528Z,25.33
2022-08-17T10:57:54.989Z,21.90
2022-08-17T11:01:04.150Z,23.60
2022-08-17T11:03:35.066Z,23.20
2022-08-17T11:06:18.144Z,22.35
2022-08-17T11:09:08.881Z,19.75
2022-08-17T11:12:29.182Z,19.60
2022-08-17T11:15:21.089Z,20.48
2022-08-17T11:18:32.469Z,19.30
2022-08-17T11:21:24.792Z,19.42
2022-08-17T11:24:09.757Z,20.38
2022-08-17T11:26:46.370Z,18.90
2022-08-17T11:29:24.924Z,19.27
2022-08-17T11:32:13.142Z,19.60
2022-08-17T11:34:45.743Z,20.48
2022-08-17T11:37:40.350Z,20.73
2022-08-17T11:40:41.334Z,20.75
2022-08-17T11:43:25.791Z,20.60
2022-08-17T11:46:07.028Z,22.63
2022-08-17T11:49:01.514Z,22.15
2022-08-17T11:52:01.427Z,19.15
2022-08-17T11:54:47.406Z,17.48
2022-08-17T11:57:47.369Z,17.42
2022-08-17T12:00:46.765Z,20.08
2022-08-17T12:03:55.352Z,17.98
2022-08-17T12:06:38.282Z,17.05
2022-08-17T12:09:13.956Z,15.93
2022-08-17T12:11:56.248Z,15.57
2022-08-17T12:15:08.873Z,16.42
2022-08-17T12:17:40.166Z,15.00
2022-08-17T12:20:17.810Z,13.63
2022-08-17T12:23:01.309Z,16.05
2022-08-17T12:25:39.177Z,15.25
2022-08-17T12:28:23.054Z,13.93
2022-08-17T12:30:54.789Z,14.85
2022-08-17T12:33:28.886Z,13.40
2022-08-17T12:36:03.099Z,13.45
2022-08-17T12:38:38.466Z,14.52
2022-08-17T12:41:23.486Z,13.90
2022-08-17T12:44:02.269Z,13.13
2022-08-17T12:46:36.205Z,14.27
2022-08-17T12:49:23.097Z,13.20
2022-08-17T12:51:56.677Z,13.38
2022-08-17T12:54:43.564Z,13.30
2022-08-17T12:57:18.480Z,14.20
2022-08-17T12:59:51.905Z,12.95
2022-08-17T13:02:44.313Z,12.35
2022-08-17T13:05:31.024Z,11.95
2022-08-17T13:08:04.607Z,12.38
2022-08-17T13:10:39.296Z,12.77
2022-08-17T13:13:22.931Z,11.48
2022-08-17T13:15:57.428Z,12.70
2022-08-17T13:18:48.119Z,11.80
2022-08-17T13:21:30.725Z,12.15
2022-08-17T13:24:02.865Z,11.60
2022-08-17T13:26:38.226Z,12.45
2022-08-17T13:29:09.774Z,12.52
2022-08-17T13:31:52.832Z,11.70
2022-08-17T13:34:48.970Z,11.00
2022-08-17T13:37:35.364Z,11.43
2022-08-17T13:40:38.546Z,11.30
2022-08-17T13:43:11.418Z,12.85
2022-08-17T13:45:50.712Z,11.10
2022-08-17T13:48:30.249Z,11.30
2022-08-17T13:51:17.288Z,11.40
2022-08-17T13:53:57.980Z,10.85
2022-08-17T13:56:37.394Z,10.02
2022-08-17T13:59:15.004Z,9.77
2022-08-17T14:01:53.413Z,9.85
2022-08-17T14:04:25.840Z,9.18
2022-08-17T14:06:58.468Z,9.65
2022-08-17T14:09:36.803Z,10.40
2022-08-17T14:12:09.764Z,10.40
2022-08-17T14:14:43.139Z,11.20
2022-08-17T14:17:13.486Z,9.88
2022-08-17T14:19:43.265Z,11.27
2022-08-17T14:22:23.791Z,10.85
2022-08-17T14:24:54.293Z,12.50
2022-08-17T14:27:28.198Z,10.10
2022-08-17T14:30:00.870Z,10.82
2022-08-17T14:32:33.119Z,11.23
2022-08-17T14:35:03.876Z,10.05
2022-08-17T14:37:34.615Z,10.43
2022-08-17T14:40:08.191Z,10.02
2022-08-17T14:42:41.836Z,10.63
2022-08-17T14:45:31.812Z,10.30
2022-08-17T14:48:04.334Z,10.73
2022-08-17T14:50:35.290Z,10.52
2022-08-17T14:53:05.970Z,9.95
2022-08-17T14:55:36.936Z,9.77
2022-08-17T14:58:07.077Z,9.90
2022-08-17T15:00:41.008Z,9.75
2022-08-17T15:03:11.620Z,8.63
2022-08-17T15:05:44.234Z,8.93
2022-08-17T15:08:14.713Z,9.25
2022-08-17T15:10:44.963Z,9.48
2022-08-17T15:13:20.573Z,8.50
2022-08-17T15:15:56.343Z,7.90
2022-08-17T15:18:26.186Z,8.93
2022-08-17T15:20:56.353Z,8.73
2022-08-17T15:23:28.761Z,9.63
2022-08-17T15:25:58.482Z,8.48
2022-08-17T15:28:28.234Z,9.25
2022-08-17T15:31:00.615Z,8.68
2022-08-17T15:33:32.067Z,8.70
2022-08-17T15:36:03.979Z,9.50
2022-08-17T15:38:35.425Z,9.95
2022-08-17T15:41:06.496Z,10.13
2022-08-17T15:43:36.914Z,10.20
2022-08-17T15:46:12.454Z,9.88
2022-08-17T15:48:44.804Z,9.45
2022-08-17T15:51:16.753Z,9.50
2022-08-17T15:53:49.464Z,8.80
2022-08-17T15:56:19.969Z,8.77
2022-08-17T15:58:51.215Z,9.13
2022-08-17T16:03:01.250Z,8.73
2022-08-17T16:04:29.884Z,8.65
2022-08-17T16:07:01.108Z,8.80
2022-08-17T16:09:31.085Z,8.60
2022-08-17T16:12:00.935Z,9.25
2022-08-17T16:14:33.567Z,9.75
2022-08-17T16:17:38.365Z,8.98
2022-08-17T16:19:59.854Z,9.15
2022-08-17T16:22:35.256Z,10.88
2022-08-17T16:25:07.778Z,10.00
2022-08-17T16:27:37.761Z,9.00
2022-08-17T16:30:10.504Z,10.75
2022-08-17T16:32:45.395Z,9.77
2022-08-17T16:35:17.113Z,9.77
2022-08-17T16:37:47.700Z,9.30
2022-08-17T16:40:19.105Z,9.40
2022-08-17T16:42:51.591Z,9.70
2022-08-17T16:45:23.833Z,9.75
2022-08-17T16:47:59.267Z,9.23
2022-08-17T16:50:29.049Z,8.80
2022-08-17T16:53:06.658Z,8.35
2022-08-17T16:55:37.694Z,8.40
2022-08-17T16:58:09.033Z,8.57
2022-08-17T17:00:39.472Z,7.93
2022-08-17T17:03:19.337Z,8.52
2022-08-17T17:06:03.570Z,7.90
2022-08-17T17:08:43.678Z,9.95
2022-08-17T17:11:18.312Z,10.07
2022-08-17T17:13:54.692Z,10.27
2022-08-17T17:16:34.740Z,10.45
2022-08-17T17:19:13.452Z,9.32
2022-08-17T17:21:49.515Z,9.35
2022-08-17T17:24:28.846Z,8.90
2022-08-17T17:27:13.046Z,8.85
2022-08-17T17:29:57.338Z,9.18
2022-08-17T17:32:38.742Z,8.93
2022-08-17T17:35:17.762Z,8.90
2022-08-17T17:37:49.899Z,8.95
2022-08-17T17:40:24.752Z,7.38
2022-08-17T17:42:56.484Z,8.32
2022-08-17T17:45:31.319Z,8.52
2022-08-17T17:48:01.086Z,8.32
2022-08-17T17:50:39.508Z,10.00
2022-08-17T17:53:12.504Z,9.32
2022-08-17T17:55:54.486Z,9.25
2022-08-17T17:58:39.355Z,10.05
2022-08-17T18:01:34.484Z,10.23
2022-08-17T18:04:23.394Z,9.65
2022-08-17T18:07:10.118Z,9.13
2022-08-17T18:10:01.415Z,8.75
2022-08-17T18:12:38.765Z,9.27
2022-08-17T18:15:29.588Z,8.63
2022-08-17T18:18:05.698Z,8.65
2022-08-17T18:20:53.146Z,8.93
2022-08-17T18:23:28.632Z,8.25
2022-08-17T18:26:01.408Z,8.80
2022-08-17T18:28:33.427Z,9.10
2022-08-17T18:31:12.630Z,9.10
2022-08-17T18:33:44.657Z,9.68
2022-08-17T18:36:15.585Z,10.10
2022-08-17T18:38:47.962Z,9.25
2022-08-17T18:41:25.981Z,10.13
2022-08-17T18:44:04.902Z,8.98
2022-08-17T18:46:38.365Z,9.80
2022-08-17T18:49:10.955Z,10.00
2022-08-17T18:51:43.670Z,9.40
2022-08-17T18:54:26.656Z,9.65
2022-08-17T18:56:59.070Z,9.70
2022-08-17T18:59:37.222Z,9.57
2022-08-17T19:02:40.368Z,9.52
2022-08-17T19:05:29.931Z,8.35
2022-08-17T19:08:20.521Z,8.15
2022-08-17T19:10:56.954Z,8.50
2022-08-17T19:13:34.367Z,8.55
2022-08-17T19:16:14.974Z,8.30
2022-08-17T19:18:52.146Z,8.38
2022-08-17T19:21:26.835Z,9.05
2022-08-17T19:24:02.090Z,8.30
2022-08-17T19:26:51.266Z,8.77
2022-08-17T19:29:29.309Z,8.38
2022-08-17T19:32:00.169Z,8.43
2022-08-17T19:34:34.592Z,8.65
2022-08-17T19:37:23.353Z,8.50
2022-08-17T19:40:02.520Z,9.25
2022-08-17T19:42:47.674Z,9.02
2022-08-17T19:45:32.956Z,8.70
2022-08-17T19:48:16.679Z,8.48
2022-08-17T19:50:54.194Z,8.35
2022-08-17T19:54:01.532Z,9.32
2022-08-17T19:56:32.646Z,9.93
2022-08-17T19:59:14.667Z,8.85
2022-08-17T20:01:50.666Z,8.43
2022-08-17T20:04:35.041Z,8.20
2022-08-17T20:07:17.545Z,7.70
2022-08-17T20:09:53.011Z,7.68
2022-08-17T20:12:26.283Z,8.30
2022-08-17T20:15:02.950Z,6.90
2022-08-17T20:17:35.220Z,6.97
2022-08-17T20:20:29.767Z,7.65
2022-08-17T20:23:05.281Z,6.90
2022-08-17T20:25:45.124Z,6.75
2022-08-17T20:28:24.687Z,7.07
2022-08-17T20:30:57.393Z,6.85
2022-08-17T20:33:30.001Z,6.13
2022-08-17T20:36:06.313Z,6.82
2022-08-17T20:38:45.316Z,6.78
2022-08-17T20:41:20.947Z,6.57
2022-08-17T20:44:06.824Z,6.78
2022-08-17T20:46:59.788Z,6.95
2022-08-17T20:49:38.228Z,7.82
2022-08-17T20:52:11.130Z,7.60
2022-08-17T20:54:49.503Z,6.43
2022-08-17T20:57:49.070Z,6.40
2022-08-17T21:00:44.897Z,6.50
2022-08-17T21:03:50.631Z,7.15
2022-08-17T21:06:27.498Z,5.53
2022-08-17T21:09:01.074Z,5.50
2022-08-17T21:12:04.063Z,5.75
2022-08-17T21:14:43.780Z,5.80
2022-08-17T21:17:42.055Z,6.43
2022-08-17T21:20:26.581Z,6.80
2022-08-17T21:23:13.817Z,6.28
2022-08-17T21:26:00.433Z,5.28
2022-08-17T21:29:00.840Z,6.57
2022-08-17T21:31:34.893Z,6.70
2022-08-17T21:34:30.654Z,7.15
2022-08-17T21:37:34.930Z,6.75
2022-08-17T21:40:26.270Z,6.15
2022-08-17T21:42:58.775Z,5.95
2022-08-17T21:45:32.028Z,5.75
2022-08-17T21:48:16.061Z,5.97
2022-08-17T21:50:50.026Z,6.63
2022-08-17T21:53:32.735Z,6.25
2022-08-17T21:56:05.736Z,5.78
2022-08-17T21:58:40.303Z,5.20
2022-08-17T22:01:25.390Z,6.20
2022-08-17T22:04:03.361Z,4.78
2022-08-17T22:06:38.227Z,5.63
2022-08-17T22:09:15.346Z,5.38
2022-08-17T22:12:02.584Z,4.90
2022-08-17T22:14:52.776Z,4.68
2022-08-17T22:17:27.752Z,4.70
2022-08-17T22:20:01.514Z,5.50
2022-08-17T22:22:56.225Z,5.53
2022-08-17T22:25:25.698Z,5.32
2022-08-17T22:28:00.452Z,5.30
2022-08-17T22:30:36.245Z,6.28
2022-08-17T22:33:39.197Z,5.13
2022-08-17T22:36:29.102Z,5.50
2022-08-17T22:39:01.023Z,4.80
2022-08-17T22:41:45.818Z,5.55
2022-08-17T22:44:25.344Z,4.45
2022-08-17T22:47:02.278Z,5.43
2022-08-17T22:49:38.662Z,5.20
2022-08-17T22:52:56.715Z,5.03
2022-08-17T22:55:39.175Z,4.95
2022-08-17T22:58:26.109Z,4.30
2022-08-17T23:00:58.667Z,4.15
2022-08-17T23:03:30.192Z,4.55
2022-08-17T23:06:12.016Z,4.82
2022-08-17T23:08:49.003Z,4.60
2022-08-17T23:11:19.177Z,4.65
2022-08-17T23:14:06.100Z,4.57
2022-08-17T23:16:42.473Z,4.25
2022-08-17T23:19:12.535Z,4.40
2022-08-17T23:21:42.691Z,3.70
2022-08-17T23:24:13.931Z,4.15
2022-08-17T23:26:43.732Z,4.40
2022-08-17T23:29:13.549Z,5.25
2022-08-17T23:31:46.138Z,4.78
2022-08-17T23:34:18.578Z,5.00
2022-08-17T23:36:52.448Z,5.03
2022-08-17T23:39:24.719Z,4.38
2022-08-17T23:41:58.422Z,5.32
2022-08-17T23:44:28.905Z,4.53
2022-08-17T23:47:04.749Z,4.97
2022-08-17T23:49:36.207Z,5.05
2022-08-17T23:52:10.070Z,4.80
2022-08-17T23:54:43.872Z,5.40
2022-08-17T23:57:14.912Z,5.90
2022-08-17T23:59:44.819Z,5.63
